Time,TemperatureF,DewpointF,PressureIn,WindDirection,WindDirectionDegrees,WindSpeedMPH,WindSpeedGustMPH,Humidity,HourlyPrecipIn,Conditions,Clouds,dailyrainin,SolarRadiationWatts/m^2,SoftwareType,DateUTC
2013-04-01 00:08:00,31.2,26.0,30.31,ENE,68,0.0,-999.0,81,-99.99,,,0.00,0,weatherlink.com 1.10,2013-04-01 06:08:00,
2013-04-01 00:24:00,31.2,26.0,30.31,ENE,68,0.0,-999.0,81,-99.99,,,0.00,0,weatherlink.com 1.10,2013-04-01 06:24:00,
2013-04-01 00:39:00,31.2,26.0,30.32,ENE,68,0.0,-999.0,82,-99.99,,,0.00,0,weatherlink.com 1.10,2013-04-01 06:39:00,
2013-04-01 00:54:00,30.9,26.0,30.32,ENE,68,0.0,-999.0,82,-99.99,,,0.00,0,weatherlink.com 1.10,2013-04-01 06:54:00,
2013-04-01 01:09:00,30.9,26.0,30.32,ENE,68,0.0,-999.0,83,-99.99,,,0.00,0,weatherlink.com 1.10,2013-04-01 07:09:00,
2013-04-01 01:24:00,30.8,26.0,30.32,SSE,154,0.0,-999.0,83,-99.99,,,0.00,0,weatherlink.com 1.10,2013-04-01 07:24:00,
2013-04-01 01:39:00,30.6,26.0,30.32,SSE,154,0.0,-999.0,83,-99.99,,,0.00,0,weatherlink.com 1.10,2013-04-01 07:39:00,
2013-04-01 01:54:00,30.6,26.0,30.32,SSE,165,1.0,-999.0,83,-99.99,,,0.00,0,weatherlink.com 1.10,2013-04-01 07:54:00,
2013-04-01 02:09:00,30.5,26.0,30.31,SSE,165,1.0,-999.0,83,-99.99,,,0.00,0,weatherlink.com 1.10,2013-04-01 08:09:00,
2013-04-01 02:24:00,30.6,26.0,30.31,SSE,165,0.0,-999.0,83,-99.99,,,0.00,0,weatherlink.com 1.10,2013-04-01 08:24:00,
2013-04-01 02:39:00,30.7,26.0,30.31,SSW,213,2.0,-999.0,82,-99.99,,,0.00,0,weatherlink.com 1.10,2013-04-01 08:39:00,
2013-04-01 02:54:00,30.0,25.0,30.30,SSW,192,0.0,-999.0,83,-99.99,,,0.00,0,weatherlink.com 1.10,2013-04-01 08:54:00,
2013-04-01 03:09:00,29.1,25.0,30.30,SSW,192,0.0,-999.0,83,-99.99,,,0.00,0,weatherlink.com 1.10,2013-04-01 09:09:00,
2013-04-01 03:24:00,28.2,24.0,30.30,SSW,192,0.0,-999.0,83,-99.99,,,0.00,0,weatherlink.com 1.10,2013-04-01 09:24:00,
2013-04-01 03:39:00,27.5,23.0,30.29,SSW,192,0.0,-999.0,84,-99.99,,,0.00,0,weatherlink.com 1.10,2013-04-01 09:39:00,
2013-04-01 03:54:00,27.3,23.0,30.29,SSW,192,0.0,-999.0,85,-99.99,,,0.00,0,weatherlink.com 1.10,2013-04-01 09:54:00,
2013-04-01 04:09:00,27.3,25.0,30.29,SSW,192,0.0,-999.0,92,-99.99,,,0.00,0,weatherlink.com 1.10,2013-04-01 10:09:00,
2013-04-01 04:24:00,27.2,24.0,30.29,SSW,192,0.0,-999.0,86,-99.99,,,0.00,0,weatherlink.com 1.10,2013-04-01 10:24:00,
2013-04-01 04:39:00,27.0,23.0,30.29,SSW,192,0.0,-999.0,86,-99.99,,,0.00,0,weatherlink.com 1.10,2013-04-01 10:39:00,
2013-04-01 04:54:00,26.7,23.0,30.29,SSW,192,0.0,-999.0,86,-99.99,,,0.00,0,weatherlink.com 1.10,2013-04-01 10:54:00,
2013-04-01 05:09:00,26.1,23.0,30.30,SSW,192,0.0,-999.0,86,-99.99,,,0.00,0,weatherlink.com 1.10,2013-04-01 11:09:00,
2013-04-01 05:24:00,25.4,22.0,30.30,SSW,192,0.0,-999.0,86,-99.99,,,0.00,0,weatherlink.com 1.10,2013-04-01 11:24:00,
2013-04-01 05:39:00,25.1,22.0,30.30,SSW,192,0.0,-999.0,86,-99.99,,,0.00,0,weatherlink.com 1.10,2013-04-01 11:39:00,
2013-04-01 05:54:00,24.9,21.0,30.30,SSW,192,0.0,-999.0,86,-99.99,,,0.00,0,weatherlink.com 1.10,2013-04-01 11:54:00,
2013-04-01 06:09:00,24.5,21.0,30.30,SSW,192,0.0,-999.0,86,-99.99,,,0.00,0,weatherlink.com 1.10,2013-04-01 12:09:00,
2013-04-01 06:24:00,24.4,21.0,30.30,SSW,192,0.0,-999.0,86,-99.99,,,0.00,0,weatherlink.com 1.10,2013-04-01 12:24:00,
2013-04-01 06:39:00,23.9,20.0,30.30,SSW,192,0.0,-999.0,86,-99.99,,,0.00,7,weatherlink.com 1.10,2013-04-01 12:39:00,
2013-04-01 06:54:00,24.2,21.0,30.30,SSW,192,0.0,-999.0,86,-99.99,,,0.00,14,weatherlink.com 1.10,2013-04-01 12:54:00,
2013-04-01 07:09:00,24.6,21.0,30.30,SSW,192,0.0,-999.0,87,-99.99,,,0.00,35,weatherlink.com 1.10,2013-04-01 13:09:00,
2013-04-01 07:24:00,25.8,23.0,30.31,SSW,192,0.0,-999.0,87,-99.99,,,0.00,90,weatherlink.com 1.10,2013-04-01 13:24:00,
2013-04-01 07:39:00,28.1,25.0,30.31,SSW,192,0.0,-999.0,88,-99.99,,,0.00,139,weatherlink.com 1.10,2013-04-01 13:39:00,
2013-04-01 07:55:00,31.1,27.0,30.32,SSW,192,0.0,-999.0,85,-99.99,,,0.00,183,weatherlink.com 1.10,2013-04-01 13:55:00,
2013-04-01 08:10:00,33.2,28.0,30.32,SSW,192,0.0,-999.0,80,-99.99,,,0.00,214,weatherlink.com 1.10,2013-04-01 14:10:00,
2013-04-01 08:25:00,34.4,27.0,30.31,ENE,69,0.0,-999.0,75,-99.99,,,0.00,244,weatherlink.com 1.10,2013-04-01 14:25:00,
2013-04-01 08:40:00,35.4,28.0,30.32,ENE,70,0.0,-999.0,73,-99.99,,,0.00,135,weatherlink.com 1.10,2013-04-01 14:40:00,
2013-04-01 08:55:00,36.0,27.0,30.32,ENE,70,0.0,-999.0,71,-99.99,,,0.00,350,weatherlink.com 1.10,2013-04-01 14:55:00,
2013-04-01 09:10:00,36.6,28.0,30.32,NE,36,0.0,-999.0,70,-99.99,,,0.00,378,weatherlink.com 1.10,2013-04-01 15:10:00,
2013-04-01 09:25:00,37.9,27.0,30.31,NE,36,0.0,-999.0,66,-99.99,,,0.00,185,weatherlink.com 1.10,2013-04-01 15:25:00,
2013-04-01 09:40:00,39.0,28.0,30.31,NE,36,0.0,-999.0,64,-99.99,,,0.00,373,weatherlink.com 1.10,2013-04-01 15:40:00,
2013-04-01 09:55:00,39.8,27.0,30.31,NE,36,0.0,-999.0,61,-99.99,,,0.00,346,weatherlink.com 1.10,2013-04-01 15:55:00,
2013-04-01 10:10:00,41.2,27.0,30.31,ENE,74,0.0,-999.0,57,-99.99,,,0.00,274,weatherlink.com 1.10,2013-04-01 16:10:00,
2013-04-01 10:25:00,42.1,27.0,30.31,NNE,30,4.0,-999.0,55,-99.99,,,0.00,534,weatherlink.com 1.10,2013-04-01 16:25:00,
2013-04-01 10:40:00,43.2,26.0,30.31,NNE,24,3.0,-999.0,51,-99.99,,,0.00,548,weatherlink.com 1.10,2013-04-01 16:40:00,
2013-04-01 10:55:00,43.6,26.0,30.31,East,90,3.0,-999.0,50,-99.99,,,0.00,566,weatherlink.com 1.10,2013-04-01 16:55:00,
2013-04-01 11:10:00,43.5,25.0,30.30,ENE,65,4.0,-999.0,49,-99.99,,,0.00,622,weatherlink.com 1.10,2013-04-01 17:10:00,
2013-04-01 11:25:00,43.6,26.0,30.30,NNE,29,3.0,-999.0,50,-99.99,,,0.00,561,weatherlink.com 1.10,2013-04-01 17:25:00,
2013-04-01 11:40:00,44.6,25.0,30.30,NE,51,4.0,-999.0,47,-99.99,,,0.00,737,weatherlink.com 1.10,2013-04-01 17:40:00,
2013-04-01 11:55:00,45.6,25.0,30.30,NNE,13,2.0,-999.0,45,-99.99,,,0.00,758,weatherlink.com 1.10,2013-04-01 17:55:00,
2013-04-01 12:10:00,46.0,25.0,30.30,NNE,24,2.0,-999.0,44,-99.99,,,0.00,770,weatherlink.com 1.10,2013-04-01 18:10:00,
2013-04-01 12:26:00,47.7,25.0,30.29,NNE,26,2.0,-999.0,42,-99.99,,,0.00,779,weatherlink.com 1.10,2013-04-01 18:26:00,
2013-04-01 12:41:00,46.6,25.0,30.29,SE,141,2.0,-999.0,43,-99.99,,,0.00,784,weatherlink.com 1.10,2013-04-01 18:41:00,
2013-04-01 12:56:00,47.3,25.0,30.28,ESE,102,0.0,-999.0,42,-99.99,,,0.00,795,weatherlink.com 1.10,2013-04-01 18:56:00,
2013-04-01 13:11:00,48.8,26.0,30.28,East,96,6.0,-999.0,42,-99.99,,,0.00,795,weatherlink.com 1.10,2013-04-01 19:11:00,
2013-04-01 13:26:00,49.2,26.0,30.27,SSW,207,3.0,-999.0,40,-99.99,,,0.00,786,weatherlink.com 1.10,2013-04-01 19:26:00,
2013-04-01 13:41:00,49.4,25.0,30.27,ENE,74,3.0,-999.0,39,-99.99,,,0.00,784,weatherlink.com 1.10,2013-04-01 19:41:00,
2013-04-01 13:56:00,49.2,26.0,30.26,SSW,197,3.0,-999.0,40,-99.99,,,0.00,773,weatherlink.com 1.10,2013-04-01 19:56:00,
2013-04-01 14:26:00,51.1,27.0,30.25,ESE,106,4.0,-999.0,39,-99.99,,,0.00,758,weatherlink.com 1.10,2013-04-01 20:26:00,
2013-04-01 14:41:00,50.3,26.0,30.25,South,172,0.0,-999.0,39,-99.99,,,0.00,707,weatherlink.com 1.10,2013-04-01 20:41:00,
2013-04-01 14:56:00,51.3,26.0,30.24,South,179,2.0,-999.0,37,-99.99,,,0.00,684,weatherlink.com 1.10,2013-04-01 20:56:00,
2013-04-01 15:11:00,51.1,26.0,30.24,ESE,106,3.0,-999.0,38,-99.99,,,0.00,661,weatherlink.com 1.10,2013-04-01 21:11:00,
2013-04-01 15:41:00,52.3,26.0,30.24,ENE,72,0.0,-999.0,36,-99.99,,,0.00,594,weatherlink.com 1.10,2013-04-01 21:41:00,
2013-04-01 15:56:00,51.7,25.0,30.23,ESE,104,3.0,-999.0,36,-99.99,,,0.00,552,weatherlink.com 1.10,2013-04-01 21:56:00,
2013-04-01 16:11:00,51.5,26.0,30.24,ENE,65,0.0,-999.0,38,-99.99,,,0.00,533,weatherlink.com 1.10,2013-04-01 22:11:00,
2013-04-01 16:26:00,51.8,26.0,30.23,ESE,104,2.0,-999.0,37,-99.99,,,0.00,506,weatherlink.com 1.10,2013-04-01 22:26:00,
2013-04-01 16:41:00,51.1,26.0,30.24,East,96,4.0,-999.0,38,-99.99,,,0.00,404,weatherlink.com 1.10,2013-04-01 22:41:00,
2013-04-01 16:56:00,50.5,26.0,30.23,SE,138,4.0,-999.0,39,-99.99,,,0.00,392,weatherlink.com 1.10,2013-04-01 22:56:00,
2013-04-01 17:11:00,49.6,26.0,30.24,NE,55,5.0,-999.0,40,-99.99,,,0.00,346,weatherlink.com 1.10,2013-04-01 23:11:00,
2013-04-01 17:26:00,49.8,26.0,30.23,NNE,26,3.0,-999.0,39,-99.99,,,0.00,192,weatherlink.com 1.10,2013-04-01 23:26:00,
2013-04-01 17:41:00,50.4,26.0,30.23,NE,49,2.0,-999.0,39,-99.99,,,0.00,241,weatherlink.com 1.10,2013-04-01 23:41:00,
2013-04-01 17:56:00,49.1,26.0,30.23,NNE,22,1.0,-999.0,41,-99.99,,,0.00,197,weatherlink.com 1.10,2013-04-01 23:56:00,
2013-04-01 18:11:00,48.9,26.0,30.23,ENE,69,6.0,-999.0,41,-99.99,,,0.00,139,weatherlink.com 1.10,2013-04-02 00:11:00,
2013-04-01 18:26:00,47.8,26.0,30.23,ENE,75,3.0,-999.0,42,-99.99,,,0.00,86,weatherlink.com 1.10,2013-04-02 00:26:00,
2013-04-01 18:41:00,47.1,25.0,30.23,East,98,1.0,-999.0,43,-99.99,,,0.00,35,weatherlink.com 1.10,2013-04-02 00:41:00,
2013-04-01 18:56:00,46.3,25.0,30.23,ESE,108,0.0,-999.0,44,-99.99,,,0.00,21,weatherlink.com 1.10,2013-04-02 00:56:00,
2013-04-01 19:11:00,45.3,25.0,30.23,East,95,2.0,-999.0,45,-99.99,,,0.00,7,weatherlink.com 1.10,2013-04-02 01:11:00,
2013-04-01 19:26:00,44.3,25.0,30.23,East,95,0.0,-999.0,47,-99.99,,,0.00,0,weatherlink.com 1.10,2013-04-02 01:26:00,
2013-04-01 19:41:00,43.2,25.0,30.24,East,96,0.0,-999.0,49,-99.99,,,0.00,0,weatherlink.com 1.10,2013-04-02 01:41:00,
2013-04-01 19:56:00,41.7,24.0,30.24,East,101,1.0,-999.0,50,-99.99,,,0.00,0,weatherlink.com 1.10,2013-04-02 01:56:00,
2013-04-01 20:11:00,40.5,24.0,30.25,SSE,149,6.0,-999.0,52,-99.99,,,0.00,0,weatherlink.com 1.10,2013-04-02 02:11:00,
2013-04-01 20:26:00,39.7,24.0,30.27,East,101,2.0,-999.0,53,-99.99,,,0.00,0,weatherlink.com 1.10,2013-04-02 02:26:00,
2013-04-01 20:41:00,38.5,23.0,30.27,ESE,123,0.0,-999.0,55,-99.99,,,0.00,0,weatherlink.com 1.10,2013-04-02 02:41:00,
2013-04-01 20:56:00,37.7,24.0,30.28,ESE,123,0.0,-999.0,57,-99.99,,,0.00,0,weatherlink.com 1.10,2013-04-02 02:56:00,
2013-04-01 21:11:00,36.6,23.0,30.28,ESE,122,0.0,-999.0,59,-99.99,,,0.00,0,weatherlink.com 1.10,2013-04-02 03:11:00,
2013-04-01 21:26:00,35.9,23.0,30.29,ESE,122,0.0,-999.0,60,-99.99,,,0.00,0,weatherlink.com 1.10,2013-04-02 03:26:00,
2013-04-01 21:41:00,35.1,23.0,30.30,ESE,123,0.0,-999.0,61,-99.99,,,0.00,0,weatherlink.com 1.10,2013-04-02 03:41:00,
2013-04-01 21:56:00,34.4,22.0,30.30,ESE,123,0.0,-999.0,62,-99.99,,,0.00,0,weatherlink.com 1.10,2013-04-02 03:56:00,
2013-04-01 22:11:00,33.7,22.0,30.30,ESE,123,0.0,-999.0,63,-99.99,,,0.00,0,weatherlink.com 1.10,2013-04-02 04:11:00,
2013-04-01 22:41:00,32.5,22.0,30.30,ESE,122,0.0,-999.0,66,-99.99,,,0.00,0,weatherlink.com 1.10,2013-04-02 04:41:00,
2013-04-01 22:56:00,32.1,22.0,30.29,ESE,122,0.0,-999.0,66,-99.99,,,0.00,0,weatherlink.com 1.10,2013-04-02 04:56:00,
2013-04-01 23:11:00,31.7,22.0,30.29,ESE,122,0.0,-999.0,67,-99.99,,,0.00,0,weatherlink.com 1.10,2013-04-02 05:11:00,
2013-04-01 23:26:00,31.3,22.0,30.28,ESE,123,0.0,-999.0,68,-99.99,,,0.00,0,weatherlink.com 1.10,2013-04-02 05:26:00,
2013-04-01 23:41:00,30.9,22.0,30.28,ESE,123,0.0,-999.0,69,-99.99,,,0.00,0,weatherlink.com 1.10,2013-04-02 05:41:00,
2013-04-01 23:56:00,30.3,22.0,30.27,ESE,123,0.0,-999.0,70,-99.99,,,0.00,0,weatherlink.com 1.10,2013-04-02 05:56:00,